To NAV CANADA Home Page Login to a new session Search on AWWS site Feedback and Comments Disclaimer Vers la page française équivalente Tips FAQ What's new on the site To the Forecasts and Observations / NOTAM section To "File a Flight Plan" website Publications and other links Update of the User's profile FIC Telephone Numbers My Weather Data Folder Route Weather Data Regional Weather Data Local Weather Data To the Forecasts and Observations / NOTAM section
Request Generated 04/25/2014 at 01:06:02 UTC . Weather information available at that time is displayed.

METAR/TAF

CARTWRIGHT/NL    

METAR CWCA 250100Z 02012KT 15SM OVC015 M00/M01 A3013 RMK ST8 SLP204=
METAR CWCA 250000Z 03005KT 15SM OVC025 M00/M01 A3013 RMK SC8 SLP205=
METAR CWCA 242300Z 02010KT 15SM FEW015 OVC020 M00/M00 A3013 RMK CU1SC8 TRCU SLP204=

TAF CYCA 241938Z 2420/2508 ADVISORY OFFSITE 02010KT P6SM BKN025 TEMPO
2420/2507 5SM -SHSN BKN015
FM250700 02010KT 4SM -SN OVC007
RMK NXT FCST BY 250200Z=
Your time UTC time
Weather data provided by Environment Canada and NAV CANADA